Terminal Aerodrome Forecast
Issued by NWS

Home | Current Version | Previous Version | Graphics & Text | Print | Product List | Glossary On
Versions: 1 2 3 4 5 6 7 8 9 10 11 12 13 14 15 16 17 18
477
FTUS43 KPAH 180449 AAA
TAFCGI
TAF AMD
KCGI 180449Z 1805/1824 VRB03KT 2SM BR SCT150
     FM180900 00000KT 1SM BR SKC
      TEMPO 1809/1812 1/2SM FG SCT001
     FM181300 VRB02KT P6SM SKC
     FM181600 29006KT P6SM SCT045=

USA.gov is the U.S. government's official web portal to all federal, state and local government web resources and services.